sensor_id;sensor_type;location;lat;lon;timestamp;pressure;altitude;pressure_sealevel;temperature;humidity
18765;BME280;9511;54.242;12.448;2023-12-28T04:02:48;100427.75;;;6.32;100.00
18765;BME280;9511;54.242;12.448;2023-12-28T04:05:25;100429.53;;;6.33;100.00
18765;BME280;9511;54.242;12.448;2023-12-28T04:07:52;100423.47;;;6.35;100.00
18765;BME280;9511;54.242;12.448;2023-12-28T04:10:28;100428.84;;;6.38;100.00
18765;BME280;9511;54.242;12.448;2023-12-28T04:12:56;100420.16;;;6.41;100.00
18765;BME280;9511;54.242;12.448;2023-12-28T04:15:23;100432.72;;;6.48;100.00
18765;BME280;9511;54.242;12.448;2023-12-28T04:17:52;100428.63;;;6.56;100.00
18765;BME280;9511;54.242;12.448;2023-12-28T04:20:19;100424.25;;;6.57;100.00
18765;BME280;9511;54.242;12.448;2023-12-28T04:22:47;100433.88;;;6.56;100.00
18765;BME280;9511;54.242;12.448;2023-12-28T04:25:14;100430.31;;;6.54;100.00
18765;BME280;9511;54.242;12.448;2023-12-28T04:27:42;100438.19;;;6.54;100.00
18765;BME280;9511;54.242;12.448;2023-12-28T04:30:12;100428.63;;;6.56;100.00
18765;BME280;9511;54.242;12.448;2023-12-28T04:32:39;100424.25;;;6.57;100.00
18765;BME280;9511;54.242;12.448;2023-12-28T04:35:08;100435.56;;;6.54;100.00
18765;BME280;9511;54.242;12.448;2023-12-28T04:37:35;100433.69;;;6.52;100.00
18765;BME280;9511;54.242;12.448;2023-12-28T04:40:03;100430.19;;;6.51;100.00
18765;BME280;9511;54.242;12.448;2023-12-28T04:42:32;100429.06;;;6.45;100.00
18765;BME280;9511;54.242;12.448;2023-12-28T04:44:59;100421.16;;;6.43;100.00
18765;BME280;9511;54.242;12.448;2023-12-28T04:47:26;100420.16;;;6.41;100.00
18765;BME280;9511;54.242;12.448;2023-12-28T04:49:54;100428.91;;;6.40;100.00
18765;BME280;9511;54.242;12.448;2023-12-28T04:52:22;100414.69;;;6.35;100.00
18765;BME280;9511;54.242;12.448;2023-12-28T04:54:50;100417.31;;;6.35;100.00
18765;BME280;9511;54.242;12.448;2023-12-28T04:57:17;100426.84;;;6.31;100.00
18765;BME280;9511;54.242;12.448;2023-12-28T04:59:44;100418.22;;;6.35;100.00
18765;BME280;9511;54.242;12.448;2023-12-28T05:02:12;100426.84;;;6.31;100.00
18765;BME280;9511;54.242;12.448;2023-12-28T05:04:39;100420.69;;;6.31;100.00
18765;BME280;9511;54.242;12.448;2023-12-28T05:07:06;100414.53;;;6.30;100.00
18765;BME280;9511;54.242;12.448;2023-12-28T05:09:35;100409.13;;;6.26;100.00
18765;BME280;9511;54.242;12.448;2023-12-28T05:12:03;100414.22;;;6.21;100.00
18765;BME280;9511;54.242;12.448;2023-12-28T05:14:30;100422.25;;;6.26;100.00
18765;BME280;9511;54.242;12.448;2023-12-28T05:16:58;100427.59;;;6.29;100.00
18765;BME280;9511;54.242;12.448;2023-12-28T05:19:25;100427.66;;;6.30;100.00
18765;BME280;9511;54.242;12.448;2023-12-28T05:21:52;100422.56;;;6.35;100.00
18765;BME280;9511;54.242;12.448;2023-12-28T05:24:20;100436.78;;;6.40;100.00
18765;BME280;9511;54.242;12.448;2023-12-28T05:26:48;100426.41;;;6.43;100.00
18765;BME280;9511;54.242;12.448;2023-12-28T05:29:16;100421.22;;;6.46;100.00
18765;BME280;9511;54.242;12.448;2023-12-28T05:31:43;100439.00;;;6.53;100.00
18765;BME280;9511;54.242;12.448;2023-12-28T05:34:10;100432.09;;;6.55;100.00
18765;BME280;9511;54.242;12.448;2023-12-28T05:36:37;100445.19;;;6.54;100.00
18765;BME280;9511;54.242;12.448;2023-12-28T05:39:07;100454.75;;;6.53;100.00
18765;BME280;9511;54.242;12.448;2023-12-28T05:41:35;100448.47;;;6.48;100.00
18765;BME280;9511;54.242;12.448;2023-12-28T05:44:04;100460.69;;;6.48;100.00
18765;BME280;9511;54.242;12.448;2023-12-28T05:46:31;100449.50;;;6.53;100.00
18765;BME280;9511;54.242;12.448;2023-12-28T05:48:59;100461.72;;;6.51;100.00
18765;BME280;9511;54.242;12.448;2023-12-28T05:51:26;100461.63;;;6.48;100.00
18765;BME280;9511;54.242;12.448;2023-12-28T05:53:54;100452.00;;;6.49;100.00
18765;BME280;9511;54.242;12.448;2023-12-28T05:56:21;100471.34;;;6.51;100.00
18765;BME280;9511;54.242;12.448;2023-12-28T05:58:48;100458.81;;;6.44;100.00
18765;BME280;9511;54.242;12.448;2023-12-28T06:01:17;100460.31;;;6.37;100.00
18765;BME280;9511;54.242;12.448;2023-12-28T06:03:44;100461.28;;;6.39;100.00
18765;BME280;9511;54.242;12.448;2023-12-28T06:06:15;100461.13;;;6.36;100.00
18765;BME280;9511;54.242;12.448;2023-12-28T06:08:43;100456.63;;;6.32;100.00
18765;BME280;9511;54.242;12.448;2023-12-28T06:11:10;100464.38;;;6.29;100.00
18765;BME280;9511;54.242;12.448;2023-12-28T06:13:37;100458.50;;;6.36;100.00
18765;BME280;9511;54.242;12.448;2023-12-28T06:16:05;100454.22;;;6.38;100.00
18765;BME280;9511;54.242;12.448;2023-12-28T06:18:34;100445.59;;;6.42;100.00
18765;BME280;9511;54.242;12.448;2023-12-28T06:21:01;100444.94;;;6.48;100.00
18765;BME280;9511;54.242;12.448;2023-12-28T06:23:32;100436.06;;;6.44;100.00
18765;BME280;9511;54.242;12.448;2023-12-28T06:26:04;100450.34;;;6.52;100.00
18765;BME280;9511;54.242;12.448;2023-12-28T06:28:32;100463.63;;;6.55;100.00
18765;BME280;9511;54.242;12.448;2023-12-28T06:31:00;100446.06;;;6.54;100.00
18765;BME280;9511;54.242;12.448;2023-12-28T06:33:29;100446.53;;;6.43;100.00
18765;BME280;9511;54.242;12.448;2023-12-28T06:35:58;100453.56;;;6.44;100.00
18765;BME280;9511;54.242;12.448;2023-12-28T06:38:25;100456.06;;;6.41;100.00
18765;BME280;9511;54.242;12.448;2023-12-28T06:40:52;100450.75;;;6.39;100.00
18765;BME280;9511;54.242;12.448;2023-12-28T06:43:19;100452.59;;;6.42;100.00
18765;BME280;9511;54.242;12.448;2023-12-28T06:45:47;100446.25;;;6.36;100.00
18765;BME280;9511;54.242;12.448;2023-12-28T06:48:14;100454.31;;;6.41;100.00
18765;BME280;9511;54.242;12.448;2023-12-28T06:50:41;100443.63;;;6.36;100.00
18765;BME280;9511;54.242;12.448;2023-12-28T06:53:10;100438.28;;;6.33;100.00
18765;BME280;9511;54.242;12.448;2023-12-28T06:55:37;100425.97;;;6.31;100.00
18765;BME280;9511;54.242;12.448;2023-12-28T06:58:04;100446.41;;;6.39;100.00
18765;BME280;9511;54.242;12.448;2023-12-28T07:00:33;100440.19;;;6.37;100.00
18765;BME280;9511;54.242;12.448;2023-12-28T07:03:00;100446.00;;;6.29;100.00
18765;BME280;9511;54.242;12.448;2023-12-28T07:05:27;100439.91;;;6.30;100.00
18765;BME280;9511;54.242;12.448;2023-12-28T07:07:55;100448.56;;;6.27;100.00
18765;BME280;9511;54.242;12.448;2023-12-28T07:10:23;100448.19;;;6.41;100.00
18765;BME280;9511;54.242;12.448;2023-12-28T07:12:51;100449.19;;;6.44;100.00
18765;BME280;9511;54.242;12.448;2023-12-28T07:15:18;100444.03;;;6.47;100.00
18765;BME280;9511;54.242;12.448;2023-12-28T07:17:45;100444.03;;;6.47;100.00
18765;BME280;9511;54.242;12.448;2023-12-28T07:20:13;100467.91;;;6.53;100.00
18765;BME280;9511;54.242;12.448;2023-12-28T07:22:40;100465.41;;;6.56;100.00
18765;BME280;9511;54.242;12.448;2023-12-28T07:25:08;100457.31;;;6.50;100.00
18765;BME280;9511;54.242;12.448;2023-12-28T07:27:36;100463.56;;;6.54;100.00
18765;BME280;9511;54.242;12.448;2023-12-28T07:30:05;100468.88;;;6.55;100.00
18765;BME280;9511;54.242;12.448;2023-12-28T07:32:35;100475.75;;;6.52;100.00
18765;BME280;9511;54.242;12.448;2023-12-28T07:35:02;100468.06;;;6.58;100.00
18765;BME280;9511;54.242;12.448;2023-12-28T07:37:30;100462.66;;;6.53;100.00
18765;BME280;9511;54.242;12.448;2023-12-28T07:39:57;100468.75;;;6.52;100.00
18765;BME280;9511;54.242;12.448;2023-12-28T07:42:24;100476.94;;;6.60;100.00
18765;BME280;9511;54.242;12.448;2023-12-28T07:44:53;100474.41;;;6.63;100.00
18765;BME280;9511;54.242;12.448;2023-12-28T07:47:20;100474.34;;;6.61;100.00
18765;BME280;9511;54.242;12.448;2023-12-28T07:49:48;100470.75;;;6.59;100.00
18765;BME280;9511;54.242;12.448;2023-12-28T07:52:15;100461.84;;;6.54;100.00
18765;BME280;9511;54.242;12.448;2023-12-28T07:54:42;100453.16;;;6.57;100.00
18765;BME280;9511;54.242;12.448;2023-12-28T07:57:10;100454.25;;;6.63;100.00
18765;BME280;9511;54.242;12.448;2023-12-28T07:59:37;100452.53;;;6.64;100.00
18765;BME280;9511;54.242;12.448;2023-12-28T08:02:06;100449.06;;;6.65;100.00
18765;BME280;9511;54.242;12.448;2023-12-28T08:04:34;100449.72;;;6.59;100.00
18765;BME280;9511;54.242;12.448;2023-12-28T08:07:01;100438.28;;;6.57;100.00
18765;BME280;9511;54.242;12.448;2023-12-28T08:09:30;100445.94;;;6.51;100.00
18765;BME280;9511;54.242;12.448;2023-12-28T08:11:57;100439.00;;;6.53;100.00
18765;BME280;9511;54.242;12.448;2023-12-28T08:14:25;100432.81;;;6.51;100.00
18765;BME280;9511;54.242;12.448;2023-12-28T08:16:52;100439.75;;;6.49;100.00
18765;BME280;9511;54.242;12.448;2023-12-28T08:19:21;100449.81;;;6.61;100.00
18765;BME280;9511;54.242;12.448;2023-12-28T08:21:48;100455.38;;;6.70;100.00
18765;BME280;9511;54.242;12.448;2023-12-28T08:24:15;100432.69;;;6.72;100.00
18765;BME280;9511;54.242;12.448;2023-12-28T08:26:43;100426.38;;;6.67;100.00
18765;BME280;9511;54.242;12.448;2023-12-28T08:29:10;100443.97;;;6.70;100.00
18765;BME280;9511;54.242;12.448;2023-12-28T08:31:38;100436.97;;;6.70;100.00
18765;BME280;9511;54.242;12.448;2023-12-28T08:34:05;100450.91;;;6.68;100.00
18765;BME280;9511;54.242;12.448;2023-12-28T08:36:34;100445.53;;;6.64;100.00
18765;BME280;9511;54.242;12.448;2023-12-28T08:39:01;100446.59;;;6.70;100.00
18765;BME280;9511;54.242;12.448;2023-12-28T08:41:30;100458.91;;;6.71;100.00
18765;BME280;9511;54.242;12.448;2023-12-28T08:43:57;100446.88;;;6.77;100.00
18765;BME280;9511;54.242;12.448;2023-12-28T08:46:25;100456.59;;;6.80;100.00
18765;BME280;9511;54.242;12.448;2023-12-28T08:48:53;100454.19;;;6.86;100.00
18765;BME280;9511;54.242;12.448;2023-12-28T08:51:20;100450.31;;;7.00;100.00
18765;BME280;9511;54.242;12.448;2023-12-28T08:53:49;100454.91;;;7.06;100.00
18765;BME280;9511;54.242;12.448;2023-12-28T08:56:17;100451.66;;;7.14;100.00
18765;BME280;9511;54.242;12.448;2023-12-28T08:58:45;100437.88;;;7.22;100.00
18765;BME280;9511;54.242;12.448;2023-12-28T09:01:17;100448.72;;;7.31;100.00
18765;BME280;9511;54.242;12.448;2023-12-28T09:03:45;100438.34;;;7.35;100.00
18765;BME280;9511;54.242;12.448;2023-12-28T09:06:12;100427.69;;;7.32;100.00
18765;BME280;9511;54.242;12.448;2023-12-28T09:08:41;100426.97;;;7.36;100.00
18765;BME280;9511;54.242;12.448;2023-12-28T09:11:10;100421.66;;;7.35;100.00
18765;BME280;9511;54.242;12.448;2023-12-28T09:13:38;100431.34;;;7.36;100.00
18765;BME280;9511;54.242;12.448;2023-12-28T09:16:07;100427.75;;;7.34;100.00
18765;BME280;9511;54.242;12.448;2023-12-28T09:18:35;100420.91;;;7.39;100.00
18765;BME280;9511;54.242;12.448;2023-12-28T09:21:03;100415.63;;;7.39;100.00
18765;BME280;9511;54.242;12.448;2023-12-28T09:23:31;100417.44;;;7.40;100.00
18765;BME280;9511;54.242;12.448;2023-12-28T09:25:58;100419.22;;;7.41;100.00
18765;BME280;9511;54.242;12.448;2023-12-28T09:28:27;100419.22;;;7.41;100.00
18765;BME280;9511;54.242;12.448;2023-12-28T09:30:54;100407.19;;;7.49;100.00
18765;BME280;9511;54.242;12.448;2023-12-28T09:33:22;100422.44;;;7.59;100.00
18765;BME280;9511;54.242;12.448;2023-12-28T09:35:49;100419.44;;;7.76;100.00
18765;BME280;9511;54.242;12.448;2023-12-28T09:38:17;100411.09;;;7.90;100.00
18765;BME280;9511;54.242;12.448;2023-12-28T09:40:44;100409.50;;;7.95;100.00
18765;BME280;9511;54.242;12.448;2023-12-28T09:43:13;100423.00;;;8.06;100.00
18765;BME280;9511;54.242;12.448;2023-12-28T09:45:46;100418.72;;;8.10;100.00
18765;BME280;9511;54.242;12.448;2023-12-28T09:48:15;100423.38;;;8.20;100.00
18765;BME280;9511;54.242;12.448;2023-12-28T09:50:43;100412.22;;;8.29;100.00
18765;BME280;9511;54.242;12.448;2023-12-28T09:53:10;100420.50;;;8.41;100.00
18765;BME280;9511;54.242;12.448;2023-12-28T09:55:37;100402.19;;;8.45;99.98
18765;BME280;9511;54.242;12.448;2023-12-28T09:58:05;100398.72;;;8.46;99.83
18765;BME280;9511;54.242;12.448;2023-12-28T10:00:32;100387.25;;;8.44;99.27
18765;BME280;9511;54.242;12.448;2023-12-28T10:03:01;100390.94;;;8.51;99.07
18765;BME280;9511;54.242;12.448;2023-12-28T10:05:29;100375.13;;;8.51;98.89
18765;BME280;9511;54.242;12.448;2023-12-28T10:07:56;100383.06;;;8.52;98.64
18765;BME280;9511;54.242;12.448;2023-12-28T10:10:24;100397.19;;;8.55;97.92
18765;BME280;9511;54.242;12.448;2023-12-28T10:12:51;100390.28;;;8.60;98.02
18765;BME280;9511;54.242;12.448;2023-12-28T10:15:18;100394.75;;;8.62;97.17
18765;BME280;9511;54.242;12.448;2023-12-28T10:17:46;100384.28;;;8.65;97.25
18765;BME280;9511;54.242;12.448;2023-12-28T10:20:15;100377.38;;;8.70;96.59
18765;BME280;9511;54.242;12.448;2023-12-28T10:22:43;100393.13;;;8.67;96.33
18765;BME280;9511;54.242;12.448;2023-12-28T10:25:11;100374.69;;;8.67;96.64
18765;BME280;9511;54.242;12.448;2023-12-28T10:27:39;100376.47;;;8.68;96.68
18765;BME280;9511;54.242;12.448;2023-12-28T10:30:09;100380.88;;;8.69;96.26
18765;BME280;9511;54.242;12.448;2023-12-28T10:32:39;100399.50;;;8.75;95.98
18765;BME280;9511;54.242;12.448;2023-12-28T10:35:07;100368.88;;;8.81;95.80
18765;BME280;9511;54.242;12.448;2023-12-28T10:37:39;100383.88;;;8.83;95.31
18765;BME280;9511;54.242;12.448;2023-12-28T10:40:07;100350.56;;;8.87;95.02
18765;BME280;9511;54.242;12.448;2023-12-28T10:42:46;100368.31;;;8.94;94.38
18765;BME280;9511;54.242;12.448;2023-12-28T10:45:14;100349.94;;;8.97;94.21
18765;BME280;9511;54.242;12.448;2023-12-28T10:47:53;100343.91;;;9.01;94.11
18765;BME280;9511;54.242;12.448;2023-12-28T10:50:22;100348.44;;;9.07;93.91
18765;BME280;9511;54.242;12.448;2023-12-28T10:53:00;100333.50;;;9.09;93.71
18765;BME280;9511;54.242;12.448;2023-12-28T10:55:37;100329.28;;;9.15;93.20
18765;BME280;9511;54.242;12.448;2023-12-28T10:58:10;100339.78;;;9.12;93.07
18765;BME280;9511;54.242;12.448;2023-12-28T11:00:41;100323.06;;;9.13;93.08
18765;BME280;9511;54.242;12.448;2023-12-28T11:03:18;100329.16;;;9.11;92.71
18765;BME280;9511;54.242;12.448;2023-12-28T11:05:50;100327.41;;;9.11;92.78
18765;BME280;9511;54.242;12.448;2023-12-28T11:08:20;100325.78;;;9.16;92.67
18765;BME280;9511;54.242;12.448;2023-12-28T11:10:48;100332.91;;;9.20;92.32
18765;BME280;9511;54.242;12.448;2023-12-28T11:13:19;100324.13;;;9.21;92.35
18765;BME280;9511;54.242;12.448;2023-12-28T11:15:47;100344.53;;;9.28;92.25
18765;BME280;9511;54.242;12.448;2023-12-28T11:18:17;100308.66;;;9.37;91.32
18765;BME280;9511;54.242;12.448;2023-12-28T11:20:48;100322.00;;;9.43;91.65
18765;BME280;9511;54.242;12.448;2023-12-28T11:23:15;100328.16;;;9.43;91.07
18765;BME280;9511;54.242;12.448;2023-12-28T11:25:45;100337.94;;;9.47;90.74
18765;BME280;9511;54.242;12.448;2023-12-28T11:28:13;100322.09;;;9.47;90.80
18765;BME280;9511;54.242;12.448;2023-12-28T11:30:41;100323.13;;;9.54;90.51
18765;BME280;9511;54.242;12.448;2023-12-28T11:33:10;100350.41;;;9.53;89.91
18765;BME280;9511;54.242;12.448;2023-12-28T11:35:39;100315.31;;;9.58;89.80
18765;BME280;9511;54.242;12.448;2023-12-28T11:38:08;100332.06;;;9.59;89.70
18765;BME280;9511;54.242;12.448;2023-12-28T11:40:42;100317.06;;;9.58;89.50
18765;BME280;9511;54.242;12.448;2023-12-28T11:43:19;100318.91;;;9.62;89.25
18765;BME280;9511;54.242;12.448;2023-12-28T11:45:48;100316.25;;;9.62;89.55
18765;BME280;9511;54.242;12.448;2023-12-28T11:48:22;100309.28;;;9.64;89.62
18765;BME280;9511;54.242;12.448;2023-12-28T11:50:54;100295.22;;;9.67;88.90
18765;BME280;9511;54.242;12.448;2023-12-28T11:53:22;100316.38;;;9.68;88.70
18765;BME280;9511;54.242;12.448;2023-12-28T11:55:50;100304.16;;;9.73;88.46
18765;BME280;9511;54.242;12.448;2023-12-28T11:58:19;100327.16;;;9.77;87.90
18765;BME280;9511;54.242;12.448;2023-12-28T12:00:47;100314.06;;;9.82;87.64
18765;BME280;9511;54.242;12.448;2023-12-28T12:03:14;100322.72;;;9.75;87.39
18765;BME280;9511;54.242;12.448;2023-12-28T12:05:41;100298.97;;;9.76;87.37
18765;BME280;9511;54.242;12.448;2023-12-28T12:08:09;100283.16;;;9.78;87.61
18765;BME280;9511;54.242;12.448;2023-12-28T12:10:40;100279.66;;;9.80;87.21
18765;BME280;9511;54.242;12.448;2023-12-28T12:13:08;100286.88;;;9.88;86.86
18765;BME280;9511;54.242;12.448;2023-12-28T12:15:36;100287.81;;;9.91;86.95
18765;BME280;9511;54.242;12.448;2023-12-28T12:18:04;100287.91;;;9.96;86.00
18765;BME280;9511;54.242;12.448;2023-12-28T12:20:32;100295.06;;;10.01;85.81
18765;BME280;9511;54.242;12.448;2023-12-28T12:23:00;100294.28;;;10.07;85.05
18765;BME280;9511;54.242;12.448;2023-12-28T12:25:28;100290.75;;;10.05;85.08
18765;BME280;9511;54.242;12.448;2023-12-28T12:27:56;100313.66;;;10.06;85.02
18765;BME280;9511;54.242;12.448;2023-12-28T12:30:23;100293.41;;;10.06;84.86
18765;BME280;9511;54.242;12.448;2023-12-28T12:32:51;100288.97;;;10.04;84.42
18765;BME280;9511;54.242;12.448;2023-12-28T12:35:19;100300.41;;;10.04;84.86
18765;BME280;9511;54.242;12.448;2023-12-28T12:37:47;100294.25;;;10.04;84.26
18765;BME280;9511;54.242;12.448;2023-12-28T12:40:17;100299.53;;;10.04;84.75
18765;BME280;9511;54.242;12.448;2023-12-28T12:42:53;100302.19;;;10.04;84.58
18765;BME280;9511;54.242;12.448;2023-12-28T12:45:21;100301.34;;;10.08;84.12
18765;BME280;9511;54.242;12.448;2023-12-28T12:47:48;100315.53;;;10.11;83.92
18765;BME280;9511;54.242;12.448;2023-12-28T12:50:18;100297.03;;;10.13;83.99
18765;BME280;9511;54.242;12.448;2023-12-28T12:52:45;100319.06;;;10.12;83.78
18765;BME280;9511;54.242;12.448;2023-12-28T12:55:24;100317.41;;;10.17;83.59
18765;BME280;9511;54.242;12.448;2023-12-28T12:57:52;100330.50;;;10.11;83.75
18765;BME280;9511;54.242;12.448;2023-12-28T13:00:22;100316.41;;;10.10;83.45
18765;BME280;9511;54.242;12.448;2023-12-28T13:02:50;100293.41;;;10.06;84.03
18765;BME280;9511;54.242;12.448;2023-12-28T13:05:19;100330.38;;;10.05;84.14
18765;BME280;9511;54.242;12.448;2023-12-28T13:07:46;100311.81;;;10.02;84.20
18765;BME280;9511;54.242;12.448;2023-12-28T13:10:14;100309.94;;;9.96;84.27
18765;BME280;9511;54.242;12.448;2023-12-28T13:12:42;100334.56;;;9.94;83.88
18765;BME280;9511;54.242;12.448;2023-12-28T13:15:10;100310.00;;;9.99;84.03
18765;BME280;9511;54.242;12.448;2023-12-28T13:17:37;100310.69;;;9.91;84.47
18765;BME280;9511;54.242;12.448;2023-12-28T13:20:05;100317.72;;;9.90;84.64
18765;BME280;9511;54.242;12.448;2023-12-28T13:22:33;100317.63;;;9.85;84.67
18765;BME280;9511;54.242;12.448;2023-12-28T13:25:00;100312.34;;;9.85;85.09
18765;BME280;9511;54.242;12.448;2023-12-28T13:27:29;100314.09;;;9.85;84.68
18765;BME280;9511;54.242;12.448;2023-12-28T13:29:58;100327.38;;;9.88;85.00
18765;BME280;9511;54.242;12.448;2023-12-28T13:32:26;100324.75;;;9.88;84.69
18765;BME280;9511;54.242;12.448;2023-12-28T13:34:53;100317.59;;;9.84;85.19
18765;BME280;9511;54.242;12.448;2023-12-28T13:37:21;100330.78;;;9.81;85.52
18765;BME280;9511;54.242;12.448;2023-12-28T13:39:49;100328.03;;;9.76;85.98
18765;BME280;9511;54.242;12.448;2023-12-28T13:42:16;100339.31;;;9.69;86.29
18765;BME280;9511;54.242;12.448;2023-12-28T13:44:43;100341.72;;;9.58;87.93
18765;BME280;9511;54.242;12.448;2023-12-28T13:47:12;100351.25;;;9.52;88.73
18765;BME280;9511;54.242;12.448;2023-12-28T13:49:39;100353.56;;;9.38;89.85
18765;BME280;9511;54.242;12.448;2023-12-28T13:52:06;100352.59;;;9.35;90.94
18765;BME280;9511;54.242;12.448;2023-12-28T13:54:34;100361.09;;;9.23;91.46
18765;BME280;9511;54.242;12.448;2023-12-28T13:57:01;100363.66;;;9.18;92.42
18765;BME280;9511;54.242;12.448;2023-12-28T13:59:28;100361.78;;;9.14;92.99
18765;BME280;9511;54.242;12.448;2023-12-28T14:01:55;100356.63;;;9.19;92.66
18765;BME280;9511;54.242;12.448;2023-12-28T14:04:25;100363.66;;;9.18;92.67
18765;BME280;9511;54.242;12.448;2023-12-28T14:06:52;100369.94;;;9.23;92.23
18765;BME280;9511;54.242;12.448;2023-12-28T14:09:19;100365.63;;;9.27;91.75
18765;BME280;9511;54.242;12.448;2023-12-28T14:11:47;100369.28;;;9.34;91.65
18765;BME280;9511;54.242;12.448;2023-12-28T14:14:14;100359.69;;;9.36;90.99
18765;BME280;9511;54.242;12.448;2023-12-28T14:16:42;100363.31;;;9.41;90.34
18765;BME280;9511;54.242;12.448;2023-12-28T14:19:09;100359.97;;;9.48;90.08
18765;BME280;9511;54.242;12.448;2023-12-28T14:21:38;100366.03;;;9.45;89.87
18765;BME280;9511;54.242;12.448;2023-12-28T14:24:07;100382.63;;;9.40;90.20
18765;BME280;9511;54.242;12.448;2023-12-28T14:26:40;100375.50;;;9.36;91.12
18765;BME280;9511;54.242;12.448;2023-12-28T14:29:08;100373.56;;;9.28;91.80
18765;BME280;9511;54.242;12.448;2023-12-28T14:31:36;100379.41;;;9.15;93.11
18765;BME280;9511;54.242;12.448;2023-12-28T14:34:04;100380.13;;;9.08;94.04
18765;BME280;9511;54.242;12.448;2023-12-28T14:36:32;100381.91;;;9.09;93.91
18765;BME280;9511;54.242;12.448;2023-12-28T14:39:04;100387.13;;;9.06;94.38
18765;BME280;9511;54.242;12.448;2023-12-28T14:41:32;100389.69;;;9.04;94.54
18765;BME280;9511;54.242;12.448;2023-12-28T14:44:00;100399.19;;;8.98;96.04
18765;BME280;9511;54.242;12.448;2023-12-28T14:46:27;100405.09;;;8.88;97.26
18765;BME280;9511;54.242;12.448;2023-12-28T14:48:55;100384.69;;;8.81;98.13
18765;BME280;9511;54.242;12.448;2023-12-28T14:51:23;100375.63;;;8.71;99.33
18765;BME280;9511;54.242;12.448;2023-12-28T14:53:50;100386.25;;;8.72;100.00
18765;BME280;9511;54.242;12.448;2023-12-28T14:56:19;100398.63;;;8.76;99.37
18765;BME280;9511;54.242;12.448;2023-12-28T14:58:46;100372.41;;;8.83;99.34
18765;BME280;9511;54.242;12.448;2023-12-28T15:01:14;100392.16;;;8.97;97.99
18765;BME280;9511;54.242;12.448;2023-12-28T15:03:43;100390.44;;;8.99;97.20
18765;BME280;9511;54.242;12.448;2023-12-28T15:06:10;100394.97;;;9.04;96.70
18765;BME280;9511;54.242;12.448;2023-12-28T15:08:38;100402.88;;;9.04;96.38
18765;BME280;9511;54.242;12.448;2023-12-28T15:11:06;100395.84;;;9.05;96.13
18765;BME280;9511;54.242;12.448;2023-12-28T15:13:38;100404.63;;;9.04;96.09
18765;BME280;9511;54.242;12.448;2023-12-28T15:16:06;100397.56;;;9.03;95.83
18765;BME280;9511;54.242;12.448;2023-12-28T15:18:34;100396.91;;;9.12;95.14
18765;BME280;9511;54.242;12.448;2023-12-28T15:21:02;100395.09;;;9.09;94.67
18765;BME280;9511;54.242;12.448;2023-12-28T15:23:30;100401.25;;;9.10;94.53
18765;BME280;9511;54.242;12.448;2023-12-28T15:25:58;100399.50;;;9.10;94.53
18765;BME280;9511;54.242;12.448;2023-12-28T15:28:25;100410.78;;;9.04;94.80
18765;BME280;9511;54.242;12.448;2023-12-28T15:30:54;100421.22;;;9.00;95.20
18765;BME280;9511;54.242;12.448;2023-12-28T15:33:21;100423.63;;;8.91;96.09
18765;BME280;9511;54.242;12.448;2023-12-28T15:35:49;100424.19;;;8.77;97.53
18765;BME280;9511;54.242;12.448;2023-12-28T15:38:16;100416.88;;;8.67;99.02
18765;BME280;9511;54.242;12.448;2023-12-28T15:40:45;100421.13;;;8.62;100.00
18765;BME280;9511;54.242;12.448;2023-12-28T15:43:13;100427.19;;;8.60;100.00
18765;BME280;9511;54.242;12.448;2023-12-28T15:45:40;100425.25;;;8.54;100.00
18765;BME280;9511;54.242;12.448;2023-12-28T15:48:09;100433.09;;;8.51;100.00
18765;BME280;9511;54.242;12.448;2023-12-28T15:50:36;100423.25;;;8.44;100.00
18765;BME280;9511;54.242;12.448;2023-12-28T15:53:03;100409.03;;;8.39;100.00
18765;BME280;9511;54.242;12.448;2023-12-28T15:55:30;100416.75;;;8.33;100.00
18765;BME280;9511;54.242;12.448;2023-12-28T15:57:58;100418.25;;;8.24;100.00
18765;BME280;9511;54.242;12.448;2023-12-28T16:00:25;100422.56;;;8.21;100.00
18765;BME280;9511;54.242;12.448;2023-12-28T16:02:53;100417.19;;;8.18;100.00
18765;BME280;9511;54.242;12.448;2023-12-28T16:05:21;100416.47;;;8.23;100.00
18765;BME280;9511;54.242;12.448;2023-12-28T16:07:49;100413.97;;;8.28;100.00
18765;BME280;9511;54.242;12.448;2023-12-28T16:10:16;100423.53;;;8.24;100.00
18765;BME280;9511;54.242;12.448;2023-12-28T16:12:43;100421.03;;;8.29;100.00
18765;BME280;9511;54.242;12.448;2023-12-28T16:15:12;100434.16;;;8.28;100.00
18765;BME280;9511;54.242;12.448;2023-12-28T16:17:39;100432.50;;;8.31;100.00
18765;BME280;9511;54.242;12.448;2023-12-28T16:20:09;100422.91;;;8.33;100.00
18765;BME280;9511;54.242;12.448;2023-12-28T16:22:38;100420.25;;;8.32;100.00
18765;BME280;9511;54.242;12.448;2023-12-28T16:25:06;100418.44;;;8.31;100.00
18765;BME280;9511;54.242;12.448;2023-12-28T16:27:34;100421.91;;;8.30;100.00
18765;BME280;9511;54.242;12.448;2023-12-28T16:30:01;100421.03;;;8.29;100.00
18765;BME280;9511;54.242;12.448;2023-12-28T16:32:29;100432.41;;;8.28;100.00
18765;BME280;9511;54.242;12.448;2023-12-28T16:34:56;100428.91;;;8.28;100.00
18765;BME280;9511;54.242;12.448;2023-12-28T16:37:23;100415.72;;;8.28;100.00
18765;BME280;9511;54.242;12.448;2023-12-28T16:39:52;100427.91;;;8.24;100.00
18765;BME280;9511;54.242;12.448;2023-12-28T16:42:19;100436.53;;;8.18;100.00
18765;BME280;9511;54.242;12.448;2023-12-28T16:44:46;100434.88;;;8.22;100.00
18765;BME280;9511;54.242;12.448;2023-12-28T16:47:14;100426.94;;;8.20;100.00
18765;BME280;9511;54.242;12.448;2023-12-28T16:49:42;100420.63;;;8.15;100.00
18765;BME280;9511;54.242;12.448;2023-12-28T16:52:09;100417.81;;;8.09;100.00
18765;BME280;9511;54.242;12.448;2023-12-28T16:54:38;100423.88;;;8.07;100.00
18765;BME280;9511;54.242;12.448;2023-12-28T16:57:07;100430.72;;;8.00;100.00
18765;BME280;9511;54.242;12.448;2023-12-28T16:59:34;100427.16;;;7.98;100.00